KARB

Details ICAO KARB (ARB)
Name Ann Arbor Muni
Region United States
Timezone America/Detroit (UTC-5.0)
Plans Departing 37
Arriving 16
Stats Elevation 839 ft / 256 m (AMSL)
Location 42.222969° -83.745698°
Runways 2
Magnetic Variation 7.005° W
Sunrise 2017-12-15 12:58:18 UTC / 2017-12-15 07:58:18 Local
Sunset 2017-12-15 22:04:58 UTC / 2017-12-15 17:04:58 Local
Advertisement - Login to hide

Runways

ID Width Length Bearing (true) Bearing (mag) Surface Threshold Offset Overrun Length
06 75 ft / 23 m 3,501 ft / 1,067 m 54.42° 61.43° Concrete 0 ft / 0 m 0 ft / 0 m
12 112 ft / 34 m 2,796 ft / 852 m 122.28° 129.29° Grass 0 ft / 0 m 0 ft / 0 m
24 75 ft / 23 m 3,501 ft / 1,067 m 234.43° 241.44° Concrete 0 ft / 0 m 0 ft / 0 m
30 112 ft / 34 m 2,796 ft / 852 m 302.28° 309.29° Grass 0 ft / 0 m 0 ft / 0 m

Map

Weather


0- 5 10 15 20 25 30 35+ Temperature / ° C

Clouds and Precipitation
Forecast for 2017-12-15 12:00 UTC. Updated an hour ago

Ground ~20,000 ft ~40,000 ft Winds

METAR

KARB 150753Z AUTO 20006KT 10SM OVC043 M09/M14 A2998 RMK AO2 SLP166 T10891139

TAF

Not found

Frequencies

Recorded 134.55 MHz ASOS
Unicom 123.00 MHz UNICOM
Tower 120.30 MHz TWR
Unicom 120.30 MHz CTAF
Ground 121.60 MHz GND/CLNC DEL
Approach 118.95 MHz DETROIT APP/DEP
Warning: Do not use this data for real-world aviation or navigation. No guarantee of current accuracy is given.